Time;durP1;ratioP1;P1;durP2;ratioP2;P2;SDS_P1;SDS_P2;PMS_P1;PMS_P2;Temp;Humidity;BMP_temperature;BMP_pressure;BME280_temperature;BME280_humidity;BME280_pressure;Samples;Min_cycle;Max_cycle;Signal;HPM_P1;HPM_P2
2023/04/16 00:00:42;;;;;;;;;;;;;;;14.18;48.98;94109.09;4193065;28;19997;-70
2023/04/16 00:02:43;;;;;;;;;;;;;;;14.18;48.87;94110.94;4191723;28;20552;-71
2023/04/16 00:04:45;;;;;;;;;;;;;;;14.12;48.99;94110.69;4193559;28;19933;-71
2023/04/16 00:06:46;;;;;;;;;;;;;;;14.06;49.49;94105.38;4192212;28;19974;-74
2023/04/16 00:08:48;;;;;;;;;;;;;;;14.02;48.62;94106.78;4192869;28;19924;-63
2023/04/16 00:10:50;;;;;;;;;;;;;;;13.93;49.20;94109.56;4194190;28;19924;-75
2023/04/16 00:12:51;;;;;;;;;;;;;;;13.88;48.45;94108.53;4193441;28;19978;-74
2023/04/16 00:14:53;;;;;;;;;;;;;;;13.82;47.59;94107.47;4193013;28;19932;-75
2023/04/16 00:16:54;;;;;;;;;;;;;;;13.65;46.20;94106.16;4192952;28;19924;-74
2023/04/16 00:18:56;;;;;;;;;;;;;;;12.68;47.24;94113.56;4192684;28;19952;-71
2023/04/16 00:20:58;;;;;;;;;;;;;;;12.39;47.65;94117.13;4187306;28;20507;-74
2023/04/16 00:23:00;;;;;;;;;;;;;;;12.20;48.38;94110.63;4180182;28;19929;-77
2023/04/16 00:25:01;;;;;;;;;;;;;;;12.29;48.93;94111.31;4193222;28;19971;-76
2023/04/16 00:27:03;;;;;;;;;;;;;;;12.42;47.92;94113.28;4194045;28;20008;-74
2023/04/16 00:29:04;;;;;;;;;;;;;;;12.04;47.92;94118.69;4192355;28;19924;-75
2023/04/16 00:31:06;;;;;;;;;;;;;;;11.54;48.48;94114.94;4192249;28;19925;-72
2023/04/16 00:33:07;;;;;;;;;;;;;;;11.65;48.77;94111.84;4192620;28;19944;-74
2023/04/16 00:35:09;;;;;;;;;;;;;;;11.92;48.47;94117.53;4193946;28;19924;-75
2023/04/16 00:37:11;;;;;;;;;;;;;;;12.18;48.11;94104.72;4196058;28;19932;-79
2023/04/16 00:39:12;;;;;;;;;;;;;;;12.42;47.62;94114.09;4199403;28;19928;-78
2023/04/16 00:41:14;;;;;;;;;;;;;;;12.57;47.18;94108.00;4197687;28;19971;-77
2023/04/16 00:43:20;;;;;;;;;;;;;;;12.71;47.01;94112.38;4197277;28;19965;-74
2023/04/16 00:45:21;;;;;;;;;;;;;;;12.80;46.79;94107.81;4196114;28;19974;-75
2023/04/16 00:47:23;;;;;;;;;;;;;;;12.68;47.50;94100.44;4196776;28;19945;-75
2023/04/16 00:49:24;;;;;;;;;;;;;;;12.22;48.83;94113.06;4194351;28;19932;-74
2023/04/16 00:51:26;;;;;;;;;;;;;;;11.65;50.31;94109.22;4195079;28;19925;-72
2023/04/16 00:53:28;;;;;;;;;;;;;;;11.44;50.83;94108.13;4193849;28;19924;-73
2023/04/16 00:55:29;;;;;;;;;;;;;;;11.20;51.62;94114.41;4196321;28;19970;-75
2023/04/16 00:57:31;;;;;;;;;;;;;;;11.05;51.67;94109.13;4196179;28;19928;-76
2023/04/16 00:59:33;;;;;;;;;;;;;;;10.97;51.80;94114.44;4196512;28;19924;-75
2023/04/16 01:01:34;;;;;;;;;;;;;;;10.75;52.13;94110.00;4195754;28;19928;-76
2023/04/16 01:03:38;;;;;;;;;;;;;;;10.83;51.82;94109.94;4195396;28;19947;-75
2023/04/16 01:05:40;;;;;;;;;;;;;;;11.05;52.02;94108.31;4196718;28;19924;-76
2023/04/16 01:07:41;;;;;;;;;;;;;;;11.31;51.36;94101.88;4197012;28;19925;-74
2023/04/16 01:09:43;;;;;;;;;;;;;;;11.60;50.61;94101.91;4197025;28;19932;-74
2023/04/16 01:11:44;;;;;;;;;;;;;;;11.85;49.39;94105.09;4197027;28;19925;-73
2023/04/16 01:16:07;;;;;;;;;;;;;;;12.14;49.05;94097.41;4195061;28;20385;-72
2023/04/16 01:18:13;;;;;;;;;;;;;;;12.29;48.91;94100.81;4194885;28;19924;-71
2023/04/16 01:20:14;;;;;;;;;;;;;;;12.41;48.14;94093.25;4195340;28;19958;-73
2023/04/16 01:22:16;;;;;;;;;;;;;;;12.49;47.30;94093.16;4191652;28;19954;-74
2023/04/16 01:24:17;;;;;;;;;;;;;;;12.54;47.35;94095.22;4194038;28;21083;-75
2023/04/16 01:26:19;;;;;;;;;;;;;;;12.59;47.65;94100.75;4196512;28;19936;-76
2023/04/16 01:28:21;;;;;;;;;;;;;;;12.58;47.93;94094.66;4195010;28;19929;-75
2023/04/16 01:30:22;;;;;;;;;;;;;;;12.60;48.17;94099.75;4194791;28;19932;-76
2023/04/16 01:32:24;;;;;;;;;;;;;;;12.60;48.02;94095.28;4194943;28;19932;-75
2023/04/16 01:34:25;;;;;;;;;;;;;;;12.63;48.13;94091.50;4195025;28;20496;-74
2023/04/16 01:36:27;;;;;;;;;;;;;;;12.64;47.47;94091.28;4197176;28;20069;-79
2023/04/16 01:38:29;;;;;;;;;;;;;;;12.69;47.29;94093.38;4189852;28;19935;-78
2023/04/16 01:40:30;;;;;;;;;;;;;;;12.72;47.66;94089.56;4194431;28;20015;-75
2023/04/16 01:42:32;;;;;;;;;;;;;;;12.74;47.60;94079.69;4196678;28;19928;-76
2023/04/16 01:44:33;;;;;;;;;;;;;;;12.75;47.62;94078.66;4197410;28;20380;-76
2023/04/16 01:46:35;;;;;;;;;;;;;;;12.78;47.32;94075.69;4197172;28;20249;-75
2023/04/16 01:48:36;;;;;;;;;;;;;;;12.80;47.23;94073.66;4194312;28;19971;-76
2023/04/16 01:50:38;;;;;;;;;;;;;;;12.79;47.93;94072.03;4195692;28;19925;-75
2023/04/16 01:52:39;;;;;;;;;;;;;;;12.82;47.21;94067.22;4193496;28;19947;-74
2023/04/16 01:54:41;;;;;;;;;;;;;;;12.78;47.40;94067.81;4196370;28;19931;-75
2023/04/16 01:56:42;;;;;;;;;;;;;;;12.64;47.71;94078.16;4196686;28;19925;-77
2023/04/16 01:58:45;;;;;;;;;;;;;;;12.59;48.22;94070.03;4185825;28;19932;-76
2023/04/16 02:00:47;;;;;;;;;;;;;;;12.48;48.48;94070.53;4188412;28;20399;-72
2023/04/16 02:02:49;;;;;;;;;;;;;;;12.42;48.67;94073.91;4197536;28;19990;-74
2023/04/16 02:04:50;;;;;;;;;;;;;;;12.44;48.80;94071.91;4200094;28;20304;-74
2023/04/16 02:06:52;;;;;;;;;;;;;;;12.37;48.98;94071.00;4204291;28;19924;-77
2023/04/16 02:08:53;;;;;;;;;;;;;;;12.27;49.16;94074.72;4202739;28;19932;-76
2023/04/16 02:10:55;;;;;;;;;;;;;;;12.09;49.28;94075.13;4199059;28;19925;-52
2023/04/16 02:12:57;;;;;;;;;;;;;;;11.98;49.36;94085.28;4193425;28;19970;-55
2023/04/16 02:14:58;;;;;;;;;;;;;;;12.01;49.39;94075.22;4193434;28;20220;-53
2023/04/16 02:17:00;;;;;;;;;;;;;;;12.05;49.17;94075.69;4193806;28;19924;-55
2023/04/16 02:19:03;;;;;;;;;;;;;;;12.07;48.90;94077.13;4193608;28;20321;-55
2023/04/16 02:21:05;;;;;;;;;;;;;;;12.11;48.99;94076.75;4194414;28;20465;-54
2023/04/16 02:23:07;;;;;;;;;;;;;;;12.15;48.79;94073.56;4190007;28;20559;-55
2023/04/16 02:25:08;;;;;;;;;;;;;;;12.23;49.13;94070.84;4189475;28;19924;-52
2023/04/16 02:27:10;;;;;;;;;;;;;;;12.26;49.03;94069.66;4194834;28;19946;-55
2023/04/16 02:29:11;;;;;;;;;;;;;;;12.34;49.08;94068.75;4195003;28;19924;-55
2023/04/16 02:31:16;;;;;;;;;;;;;;;12.42;49.12;94066.00;4194457;28;19925;-53
2023/04/16 02:33:19;;;;;;;;;;;;;;;12.48;48.89;94066.09;4195728;28;19929;-50
2023/04/16 02:35:20;;;;;;;;;;;;;;;12.46;48.40;94068.06;4195318;28;19981;-51
2023/04/16 02:37:22;;;;;;;;;;;;;;;12.43;48.64;94070.25;4194523;28;19976;-51
2023/04/16 02:39:23;;;;;;;;;;;;;;;12.43;48.58;94063.22;4197388;28;19974;-53
2023/04/16 02:41:25;;;;;;;;;;;;;;;12.46;48.73;94060.19;4197174;28;19929;-53
2023/04/16 02:43:26;;;;;;;;;;;;;;;12.52;48.67;94066.53;4196570;28;20011;-51
2023/04/16 02:45:30;;;;;;;;;;;;;;;12.53;48.95;94060.25;4195072;28;20001;-53
2023/04/16 02:47:32;;;;;;;;;;;;;;;12.54;48.74;94055.81;4194496;28;20302;-56
2023/04/16 02:49:34;;;;;;;;;;;;;;;12.54;48.88;94055.81;4193891;28;20373;-52
2023/04/16 02:51:36;;;;;;;;;;;;;;;12.51;49.33;94057.00;4194249;28;19934;-53
2023/04/16 02:53:37;;;;;;;;;;;;;;;12.53;49.23;94057.63;4191700;28;20458;-54
2023/04/16 02:55:39;;;;;;;;;;;;;;;12.45;49.58;94055.13;4183046;28;19986;-56
2023/04/16 02:57:41;;;;;;;;;;;;;;;12.47;49.93;94048.69;4189430;28;20332;-51
2023/04/16 02:59:43;;;;;;;;;;;;;;;12.46;49.97;94052.31;4192071;28;19935;-54
2023/04/16 03:01:44;;;;;;;;;;;;;;;12.39;50.05;94046.19;4192218;28;19973;-57
2023/04/16 03:03:46;;;;;;;;;;;;;;;12.34;49.93;94053.00;4192006;28;19931;-55
2023/04/16 03:05:48;;;;;;;;;;;;;;;12.33;50.31;94051.38;4190986;28;19932;-53
2023/04/16 03:07:55;;;;;;;;;;;;;;;12.25;50.39;94055.72;4193589;28;19929;-53
2023/04/16 03:09:56;;;;;;;;;;;;;;;12.26;50.47;94051.28;4192148;28;20494;-53
2023/04/16 03:11:58;;;;;;;;;;;;;;;12.24;50.04;94054.09;4193193;28;19964;-56
2023/04/16 03:13:59;;;;;;;;;;;;;;;12.07;50.15;94061.38;4193084;28;19928;-54
2023/04/16 03:16:01;;;;;;;;;;;;;;;11.81;50.50;94067.09;4192717;28;19928;-55
2023/04/16 03:18:02;;;;;;;;;;;;;;;11.40;50.90;94075.41;4191583;28;19932;-55
2023/04/16 03:20:05;;;;;;;;;;;;;;;11.07;52.00;94072.25;4192710;28;19928;-54
2023/04/16 03:22:06;;;;;;;;;;;;;;;10.99;52.48;94081.00;4192411;28;20400;-55
2023/04/16 03:24:08;;;;;;;;;;;;;;;10.98;52.36;94068.88;4191841;28;19928;-54
2023/04/16 03:26:09;;;;;;;;;;;;;;;11.07;52.41;94073.06;4188865;28;20361;-51
2023/04/16 03:28:11;;;;;;;;;;;;;;;11.18;52.43;94068.38;4192760;28;19924;-52
2023/04/16 03:30:13;;;;;;;;;;;;;;;11.31;51.93;94071.19;4191980;28;19932;-55
2023/04/16 03:32:14;;;;;;;;;;;;;;;11.37;51.81;94067.88;4191733;28;19998;-52
2023/04/16 03:34:16;;;;;;;;;;;;;;;11.39;51.78;94071.13;4191793;28;19932;-53
2023/04/16 03:36:17;;;;;;;;;;;;;;;11.45;51.49;94070.41;4193230;28;19924;-54
2023/04/16 03:38:19;;;;;;;;;;;;;;;11.59;51.31;94071.41;4192890;28;19959;-51
2023/04/16 03:40:20;;;;;;;;;;;;;;;11.76;51.01;94072.03;4191495;28;19928;-51
2023/04/16 03:42:22;;;;;;;;;;;;;;;11.85;50.51;94075.38;4192293;28;19972;-56
2023/04/16 03:44:23;;;;;;;;;;;;;;;11.91;50.46;94079.13;4192159;28;20038;-52
2023/04/16 03:46:25;;;;;;;;;;;;;;;11.83;50.38;94078.22;4192904;28;19929;-53
2023/04/16 03:48:26;;;;;;;;;;;;;;;11.75;50.38;94082.75;4191623;28;19924;-53
2023/04/16 03:50:28;;;;;;;;;;;;;;;11.72;50.67;94083.91;4192763;28;19998;-54
2023/04/16 03:52:29;;;;;;;;;;;;;;;11.71;50.51;94084.09;4193292;28;19951;-53
2023/04/16 03:54:31;;;;;;;;;;;;;;;11.80;50.13;94080.38;4192814;28;19924;-54
2023/04/16 03:56:33;;;;;;;;;;;;;;;11.82;50.36;94078.38;4192449;28;19940;-51
2023/04/16 03:58:34;;;;;;;;;;;;;;;11.85;50.18;94078.84;4191883;28;19929;-55
2023/04/16 04:00:36;;;;;;;;;;;;;;;11.69;50.52;94079.03;4188000;28;19971;-55
2023/04/16 04:02:37;;;;;;;;;;;;;;;11.64;50.74;94079.56;4175811;28;20451;-54
2023/04/16 04:04:39;;;;;;;;;;;;;;;11.58;51.00;94084.72;4189254;28;19924;-54
2023/04/16 04:06:41;;;;;;;;;;;;;;;11.54;51.02;94086.06;4191981;28;20051;-56
2023/04/16 04:08:43;;;;;;;;;;;;;;;11.33;51.28;94089.38;4191590;28;20344;-50
2023/04/16 04:10:44;;;;;;;;;;;;;;;11.31;51.74;94086.13;4192396;28;19928;-56
2023/04/16 04:12:46;;;;;;;;;;;;;;;11.30;51.84;94090.56;4193714;28;19966;-52
2023/04/16 04:14:47;;;;;;;;;;;;;;;11.34;51.94;94094.47;4195263;28;19925;-55
2023/04/16 04:16:49;;;;;;;;;;;;;;;11.28;51.35;94095.16;4196104;28;19932;-55
2023/04/16 04:18:51;;;;;;;;;;;;;;;11.26;51.68;94092.72;4194926;28;19975;-52
2023/04/16 04:20:52;;;;;;;;;;;;;;;11.37;51.59;94101.16;4195149;28;20300;-54
2023/04/16 04:22:54;;;;;;;;;;;;;;;11.43;51.89;94098.63;4195938;28;19924;-52
2023/04/16 04:24:55;;;;;;;;;;;;;;;11.56;51.56;94100.63;4194776;28;20012;-54
2023/04/16 04:26:57;;;;;;;;;;;;;;;11.71;51.49;94102.47;4187047;28;20348;-52
2023/04/16 04:28:59;;;;;;;;;;;;;;;11.75;50.96;94103.72;4193002;28;19955;-50
2023/04/16 04:31:00;;;;;;;;;;;;;;;11.87;50.63;94102.28;4194900;28;20000;-54
2023/04/16 04:33:02;;;;;;;;;;;;;;;11.99;50.37;94105.28;4194636;28;19928;-53
2023/04/16 04:35:04;;;;;;;;;;;;;;;12.02;50.07;94107.53;4195471;28;19928;-53
2023/04/16 04:37:05;;;;;;;;;;;;;;;12.05;49.70;94107.19;4195600;28;19935;-51
2023/04/16 04:39:06;;;;;;;;;;;;;;;11.93;48.67;94103.41;4193169;28;19974;-55
2023/04/16 04:41:09;;;;;;;;;;;;;;;11.80;48.81;94109.25;4196027;28;19995;-53
2023/04/16 04:43:10;;;;;;;;;;;;;;;11.59;48.98;94115.19;4195042;28;19982;-55
2023/04/16 04:45:12;;;;;;;;;;;;;;;11.43;49.73;94113.56;4195354;28;19995;-57
2023/04/16 04:47:13;;;;;;;;;;;;;;;11.38;49.73;94111.47;4194460;28;19925;-51
2023/04/16 04:49:15;;;;;;;;;;;;;;;11.22;50.42;94119.47;4193909;28;19932;-51
2023/04/16 04:51:17;;;;;;;;;;;;;;;11.32;50.55;94111.38;4195480;28;20019;-56
2023/04/16 04:53:18;;;;;;;;;;;;;;;11.33;50.42;94111.19;4195486;28;19997;-56
2023/04/16 04:55:20;;;;;;;;;;;;;;;11.44;50.63;94109.94;4188915;28;20066;-52
2023/04/16 04:57:21;;;;;;;;;;;;;;;11.62;50.46;94112.22;4195557;28;19925;-55
2023/04/16 04:59:23;;;;;;;;;;;;;;;11.72;49.94;94122.44;4195239;28;19924;-53
2023/04/16 05:01:24;;;;;;;;;;;;;;;11.79;49.56;94113.69;4194206;28;19928;-55
2023/04/16 05:03:26;;;;;;;;;;;;;;;11.92;49.37;94113.09;4194249;28;19928;-56
2023/04/16 05:05:28;;;;;;;;;;;;;;;12.00;49.13;94114.78;4195016;28;19986;-53
2023/04/16 05:07:30;;;;;;;;;;;;;;;12.03;48.83;94114.44;4194261;28;19928;-53
2023/04/16 05:09:32;;;;;;;;;;;;;;;12.05;48.96;94117.69;4194598;28;19932;-52
2023/04/16 05:11:33;;;;;;;;;;;;;;;12.08;48.83;94118.13;4194942;28;19924;-54
2023/04/16 05:13:34;;;;;;;;;;;;;;;12.08;48.20;94117.31;4195030;28;20416;-56
2023/04/16 05:15:36;;;;;;;;;;;;;;;12.08;48.67;94117.31;4194206;28;19924;-53
2023/04/16 05:17:38;;;;;;;;;;;;;;;12.07;48.69;94115.72;4193353;28;19944;-55
2023/04/16 05:19:39;;;;;;;;;;;;;;;12.06;48.68;94114.88;4195348;28;19928;-55
2023/04/16 05:21:41;;;;;;;;;;;;;;;12.06;48.89;94119.31;4193475;28;19929;-54
2023/04/16 05:23:42;;;;;;;;;;;;;;;11.84;49.23;94121.81;4194818;28;20678;-52
2023/04/16 05:25:44;;;;;;;;;;;;;;;11.79;49.35;94116.31;4190855;28;20127;-52
2023/04/16 05:27:45;;;;;;;;;;;;;;;11.87;49.47;94113.59;4192509;28;19993;-54
2023/04/16 05:29:47;;;;;;;;;;;;;;;11.99;49.37;94118.41;4193606;28;20019;-60
2023/04/16 05:31:49;;;;;;;;;;;;;;;12.14;51.73;94111.34;4195029;28;20290;-54
2023/04/16 05:33:50;;;;;;;;;;;;;;;12.37;52.33;94107.75;4194197;28;19928;-51
2023/04/16 05:35:52;;;;;;;;;;;;;;;12.52;55.34;94108.56;4194234;28;19943;-57
2023/04/16 05:37:53;;;;;;;;;;;;;;;12.45;50.93;94107.66;4194884;28;19982;-52
2023/04/16 05:39:55;;;;;;;;;;;;;;;12.43;53.24;94104.41;4194348;28;19925;-53
2023/04/16 05:41:56;;;;;;;;;;;;;;;12.35;52.68;94115.03;4194525;28;19928;-56
2023/04/16 05:43:58;;;;;;;;;;;;;;;12.28;53.23;94104.44;4191842;28;20062;-56
2023/04/16 05:45:59;;;;;;;;;;;;;;;12.08;51.85;94110.25;4193864;28;19940;-55
2023/04/16 05:48:01;;;;;;;;;;;;;;;12.10;52.17;94115.31;4194088;28;20347;-53
2023/04/16 05:50:03;;;;;;;;;;;;;;;12.05;51.65;94112.44;4194438;28;19924;-55
2023/04/16 05:52:04;;;;;;;;;;;;;;;12.15;55.12;94110.34;4194005;28;20589;-55
2023/04/16 05:54:06;;;;;;;;;;;;;;;12.42;63.44;94111.47;4194696;28;19933;-51
2023/04/16 05:56:07;;;;;;;;;;;;;;;12.51;54.20;94112.19;4189710;28;20053;-56
2023/04/16 05:58:09;;;;;;;;;;;;;;;12.59;52.60;94109.44;4193726;28;19994;-55
2023/04/16 06:00:10;;;;;;;;;;;;;;;12.16;52.90;94117.22;4193233;28;20012;-55
2023/04/16 06:02:12;;;;;;;;;;;;;;;11.98;55.65;94112.38;4193828;28;19924;-55
2023/04/16 06:04:14;;;;;;;;;;;;;;;11.83;56.55;94111.50;4193659;28;20296;-54
2023/04/16 06:06:16;;;;;;;;;;;;;;;11.87;54.69;94121.47;4193775;28;19932;-52
2023/04/16 06:08:17;;;;;;;;;;;;;;;12.04;55.91;94114.22;4193881;28;19924;-54
2023/04/16 06:10:19;;;;;;;;;;;;;;;12.16;53.35;94109.34;4191465;28;19925;-52
2023/04/16 06:12:21;;;;;;;;;;;;;;;12.24;54.71;94109.25;4194269;28;19931;-56
2023/04/16 06:14:22;;;;;;;;;;;;;;;12.22;52.65;94107.81;4193007;28;19925;-56
2023/04/16 06:16:24;;;;;;;;;;;;;;;12.35;58.48;94107.16;4180620;28;19924;-55
2023/04/16 06:18:25;;;;;;;;;;;;;;;12.58;53.19;94114.88;4192740;28;19986;-55
2023/04/16 06:20:27;;;;;;;;;;;;;;;12.57;51.91;94108.81;4192493;28;20062;-54
2023/04/16 06:22:29;;;;;;;;;;;;;;;12.53;51.43;94118.06;4193644;28;19928;-54
2023/04/16 06:24:30;;;;;;;;;;;;;;;12.28;51.43;94113.16;4183447;28;19990;-57
2023/04/16 06:26:32;;;;;;;;;;;;;;;12.45;51.42;94105.03;4190880;28;19936;-55
2023/04/16 06:28:33;;;;;;;;;;;;;;;12.17;51.27;94110.97;4188210;28;19976;-54
2023/04/16 06:30:35;;;;;;;;;;;;;;;12.16;51.80;94109.34;4192383;28;19940;-52
2023/04/16 06:32:36;;;;;;;;;;;;;;;12.24;50.14;94106.63;4193093;28;19946;-74
2023/04/16 06:34:38;;;;;;;;;;;;;;;12.18;50.56;94112.59;4191321;28;19925;-75
2023/04/16 06:36:40;;;;;;;;;;;;;;;12.18;50.73;94107.34;4192867;28;20379;-77
2023/04/16 06:38:41;;;;;;;;;;;;;;;12.13;51.76;94104.47;4190633;28;19928;-78
2023/04/16 06:40:43;;;;;;;;;;;;;;;12.40;50.34;94104.78;4193613;28;19955;-79
2023/04/16 06:42:44;;;;;;;;;;;;;;;12.70;49.45;94101.06;4196309;28;20276;-80
2023/04/16 06:44:46;;;;;;;;;;;;;;;12.39;49.03;94109.22;4195134;28;20491;-75
2023/04/16 06:46:49;;;;;;;;;;;;;;;12.31;49.69;94111.16;4195332;28;19925;-80
2023/04/16 06:48:50;;;;;;;;;;;;;;;12.47;49.54;94103.84;4194904;28;19932;-80
2023/04/16 06:50:52;;;;;;;;;;;;;;;12.39;49.75;94103.13;4197537;28;20435;-79
2023/04/16 06:52:54;;;;;;;;;;;;;;;12.60;49.35;94100.53;4198329;28;19979;-80
2023/04/16 06:54:55;;;;;;;;;;;;;;;12.80;48.35;94100.78;4191486;28;20340;-76
2023/04/16 06:56:57;;;;;;;;;;;;;;;12.96;48.08;94104.97;4192738;28;19925;-74
2023/04/16 06:58:59;;;;;;;;;;;;;;;12.83;48.35;94100.38;4193467;28;19982;-75
2023/04/16 07:01:01;;;;;;;;;;;;;;;12.83;48.51;94099.56;4192889;28;19924;-73
2023/04/16 07:03:03;;;;;;;;;;;;;;;12.88;48.40;94100.66;4192145;28;19932;-69
2023/04/16 07:05:05;;;;;;;;;;;;;;;13.08;48.28;94103.47;4193303;28;20399;-74
2023/04/16 07:07:07;;;;;;;;;;;;;;;13.36;47.74;94110.59;4194450;28;19935;-77
2023/04/16 07:09:08;;;;;;;;;;;;;;;13.48;47.27;94106.44;4194178;28;19956;-77
2023/04/16 07:11:10;;;;;;;;;;;;;;;13.47;47.37;94111.91;4194503;28;19925;-75
2023/04/16 07:13:12;;;;;;;;;;;;;;;13.32;47.56;94114.63;4181130;28;19924;-76
2023/04/16 07:15:13;;;;;;;;;;;;;;;13.27;47.88;94106.44;4193021;28;19935;-74
2023/04/16 07:17:15;;;;;;;;;;;;;;;13.29;48.20;94109.72;4192809;28;19950;-74
2023/04/16 07:19:16;;;;;;;;;;;;;;;13.43;48.36;94110.66;4191709;28;19929;-74
2023/04/16 07:21:18;;;;;;;;;;;;;;;13.39;47.56;94114.66;4193552;28;19970;-74
2023/04/16 07:23:20;;;;;;;;;;;;;;;13.39;47.58;94107.59;4193582;28;19943;-73
2023/04/16 07:25:21;;;;;;;;;;;;;;;13.45;47.30;94114.72;4193021;28;19924;-64
2023/04/16 07:27:23;;;;;;;;;;;;;;;13.56;47.39;94104.69;4190123;28;19998;-68
2023/04/16 07:29:24;;;;;;;;;;;;;;;13.65;47.49;94104.31;4184950;28;19925;-59
2023/04/16 07:31:26;;;;;;;;;;;;;;;13.75;46.99;94113.72;4192415;28;20457;-67
2023/04/16 07:33:27;;;;;;;;;;;;;;;13.76;46.93;94105.59;4180280;28;19928;-65
2023/04/16 07:35:29;;;;;;;;;;;;;;;13.90;46.98;94104.69;4192674;28;20055;-70
2023/04/16 07:37:31;;;;;;;;;;;;;;;14.03;46.59;94100.50;4192691;28;20834;-70
2023/04/16 07:39:32;;;;;;;;;;;;;;;14.17;47.00;94102.19;4192719;28;19924;-66
2023/04/16 07:41:34;;;;;;;;;;;;;;;14.30;46.38;94107.53;4191923;28;19928;-73
2023/04/16 07:43:35;;;;;;;;;;;;;;;14.49;45.83;94105.16;4191624;28;19986;-58
2023/04/16 07:45:37;;;;;;;;;;;;;;;14.63;45.36;94106.06;4191357;28;19946;-58
2023/04/16 07:47:40;;;;;;;;;;;;;;;14.81;45.58;94100.22;4190629;28;19924;-68
2023/04/16 07:49:42;;;;;;;;;;;;;;;14.70;44.71;94104.25;4191152;28;19924;-74
2023/04/16 07:51:44;;;;;;;;;;;;;;;14.41;45.49;94100.88;4192286;28;19924;-71
2023/04/16 07:53:45;;;;;;;;;;;;;;;14.14;46.31;94103.41;4191987;28;19960;-66
2023/04/16 07:55:47;;;;;;;;;;;;;;;14.14;46.31;94099.94;4191237;28;20009;-67
2023/04/16 07:57:49;;;;;;;;;;;;;;;14.14;46.56;94102.59;4189370;28;19963;-62
2023/04/16 07:59:50;;;;;;;;;;;;;;;14.16;46.43;94100.56;4191908;28;19925;-67
2023/04/16 08:01:52;;;;;;;;;;;;;;;14.12;46.39;94100.13;4192356;28;19925;-65
2023/04/16 08:03:54;;;;;;;;;;;;;;;14.34;46.05;94103.47;4191971;28;19968;-64
2023/04/16 08:05:56;;;;;;;;;;;;;;;14.48;45.97;94103.53;4191896;28;19986;-61
2023/04/16 08:07:58;;;;;;;;;;;;;;;14.65;45.75;94099.56;4192901;28;19928;-62
2023/04/16 08:10:00;;;;;;;;;;;;;;;14.61;45.40;94108.88;4192577;28;19982;-64
2023/04/16 08:12:02;;;;;;;;;;;;;;;14.39;45.98;94099.44;4192266;28;19971;-61
2023/04/16 08:14:03;;;;;;;;;;;;;;;13.87;47.33;94097.19;4187101;28;19924;-58
2023/04/16 08:16:05;;;;;;;;;;;;;;;13.79;47.96;94099.97;4191566;28;20061;-56
2023/04/16 08:18:11;;;;;;;;;;;;;;;13.91;47.93;94094.97;4191120;28;19968;-60
2023/04/16 08:20:13;;;;;;;;;;;;;;;14.29;47.34;94092.72;4192471;28;19924;-61
2023/04/16 08:22:19;;;;;;;;;;;;;;;14.71;46.82;94096.16;4192603;28;19925;-66
2023/04/16 08:24:20;;;;;;;;;;;;;;;15.02;45.95;94093.97;4189812;28;19924;-65
2023/04/16 08:26:22;;;;;;;;;;;;;;;15.18;45.41;94095.41;4191588;28;20020;-64
2023/04/16 08:28:24;;;;;;;;;;;;;;;14.87;45.90;94094.16;4190960;28;19925;-66
2023/04/16 08:30:25;;;;;;;;;;;;;;;14.88;45.90;94088.66;4184623;28;19925;-66
2023/04/16 08:32:27;;;;;;;;;;;;;;;15.00;45.73;94088.09;4188733;28;19986;-64
2023/04/16 08:34:28;;;;;;;;;;;;;;;15.17;45.64;94093.78;4191919;28;19932;-66
2023/04/16 08:36:30;;;;;;;;;;;;;;;15.35;45.02;94081.59;4192396;28;19924;-66
2023/04/16 08:38:31;;;;;;;;;;;;;;;15.52;44.76;94074.06;4191522;28;19978;-65
2023/04/16 08:40:34;;;;;;;;;;;;;;;15.75;44.25;94075.50;4190901;28;20170;-67
2023/04/16 08:42:39;;;;;;;;;;;;;;;15.98;43.49;94069.75;4190431;28;19928;-68
2023/04/16 08:44:42;;;;;;;;;;;;;;;15.87;43.52;94081.75;4192188;28;20336;-68
2023/04/16 08:46:44;;;;;;;;;;;;;;;15.81;44.21;94066.78;4192230;28;19950;-68
2023/04/16 08:48:46;;;;;;;;;;;;;;;15.92;43.60;94073.25;4189440;28;19925;-66
2023/04/16 08:50:48;;;;;;;;;;;;;;;16.06;42.80;94071.38;4191431;28;19928;-66
2023/04/16 08:52:53;;;;;;;;;;;;;;;16.11;42.79;94069.72;4192402;28;19931;-64
2023/04/16 08:54:57;;;;;;;;;;;;;;;15.91;42.51;94071.59;4182965;28;20397;-67
2023/04/16 08:56:58;;;;;;;;;;;;;;;15.31;43.47;94074.28;4193143;28;20360;-67
2023/04/16 08:59:03;;;;;;;;;;;;;;;15.57;43.69;94070.81;4194000;28;20412;-67
2023/04/16 09:01:05;;;;;;;;;;;;;;;15.84;43.74;94068.19;4194363;28;19993;-69
2023/04/16 09:03:07;;;;;;;;;;;;;;;16.00;43.62;94059.78;4194102;28;19982;-71
2023/04/16 09:05:09;;;;;;;;;;;;;;;16.17;43.43;94052.22;4193629;28;19924;-67
2023/04/16 09:07:11;;;;;;;;;;;;;;;16.02;42.38;94062.22;4187102;28;19924;-64
2023/04/16 09:09:12;;;;;;;;;;;;;;;15.41;43.91;94050.13;4194630;28;19940;-64
2023/04/16 09:11:16;;;;;;;;;;;;;;;15.47;43.97;94054.59;4192486;28;19951;-66
2023/04/16 09:13:19;;;;;;;;;;;;;;;15.51;43.80;94055.81;4195372;28;19928;-65
2023/04/16 09:15:20;;;;;;;;;;;;;;;14.97;45.04;94064.72;4192365;28;19954;-63
2023/04/16 09:17:22;;;;;;;;;;;;;;;14.92;45.39;94063.50;4194133;28;20483;-66
2023/04/16 09:19:24;;;;;;;;;;;;;;;14.76;45.65;94071.00;4193687;28;19975;-62
2023/04/16 09:21:26;;;;;;;;;;;;;;;15.08;45.58;94066.78;4195749;28;19967;-64
2023/04/16 09:23:28;;;;;;;;;;;;;;;15.54;45.05;94060.69;4195021;28;19933;-59
2023/04/16 09:25:33;;;;;;;;;;;;;;;15.89;44.41;94060.44;4194665;28;19943;-62
2023/04/16 09:27:35;;;;;;;;;;;;;;;16.05;43.36;94059.19;4193922;28;19936;-59
2023/04/16 09:29:37;;;;;;;;;;;;;;;15.91;43.41;94059.19;4193549;28;20081;-60
2023/04/16 09:31:39;;;;;;;;;;;;;;;15.75;43.66;94067.59;4192173;28;19943;-61
2023/04/16 09:33:41;;;;;;;;;;;;;;;15.67;44.28;94059.84;4193816;28;20413;-65
2023/04/16 09:35:44;;;;;;;;;;;;;;;15.92;43.89;94052.13;4191585;28;20329;-60
2023/04/16 09:37:55;;;;;;;;;;;;;;;16.18;43.05;94053.84;4192221;28;20215;-65
2023/04/16 09:39:58;;;;;;;;;;;;;;;16.18;42.44;94054.66;4189528;28;19983;-59
2023/04/16 09:41:59;;;;;;;;;;;;;;;16.28;42.21;94046.28;4194636;28;19932;-63
2023/04/16 09:44:03;;;;;;;;;;;;;;;16.00;43.03;94053.69;4194118;28;19931;-67
2023/04/16 09:46:04;;;;;;;;;;;;;;;16.06;43.00;94048.38;4193693;28;19979;-67
2023/04/16 09:48:09;;;;;;;;;;;;;;;16.06;42.83;94047.59;4192901;28;19990;-53
2023/04/16 09:50:14;;;;;;;;;;;;;;;16.18;42.42;94045.94;4193340;28;20555;-63
2023/04/16 09:52:19;;;;;;;;;;;;;;;15.81;43.08;94050.09;4193912;28;19978;-65
2023/04/16 09:54:20;;;;;;;;;;;;;;;16.06;42.92;94043.09;4191831;28;20020;-64
2023/04/16 09:56:23;;;;;;;;;;;;;;;16.43;42.56;94039.91;4194111;28;20475;-64
2023/04/16 09:58:25;;;;;;;;;;;;;;;16.50;41.28;94035.41;4184260;28;19973;-65
2023/04/16 10:00:27;;;;;;;;;;;;;;;16.15;42.44;94023.38;4193472;28;19930;-66
2023/04/16 10:02:29;;;;;;;;;;;;;;;15.97;42.90;94036.44;4192808;28;19982;-65
2023/04/16 10:04:39;;;;;;;;;;;;;;;15.87;43.91;94031.56;4191480;28;19925;-70
2023/04/16 10:06:41;;;;;;;;;;;;;;;15.65;46.64;94032.84;4188053;28;20325;-67
2023/04/16 10:08:43;;;;;;;;;;;;;;;15.94;46.96;94029.75;4192468;28;19985;-67
2023/04/16 10:10:45;;;;;;;;;;;;;;;16.37;49.56;94028.38;4191388;28;19964;-68
2023/04/16 10:12:46;;;;;;;;;;;;;;;16.80;50.37;94033.03;4192387;28;19982;-69
2023/04/16 10:14:48;;;;;;;;;;;;;;;17.12;46.53;94023.22;4191673;28;20015;-68
2023/04/16 10:16:50;;;;;;;;;;;;;;;17.34;40.81;94021.00;4194160;28;20569;-76
2023/04/16 10:18:53;;;;;;;;;;;;;;;16.85;42.05;94014.66;4192232;28;19935;-63
2023/04/16 10:20:54;;;;;;;;;;;;;;;16.65;41.83;94020.06;4193013;28;19925;-74
2023/04/16 10:22:56;;;;;;;;;;;;;;;16.74;42.37;94008.19;4194099;28;19925;-73
2023/04/16 10:24:57;;;;;;;;;;;;;;;16.83;41.79;94013.28;4193137;28;20404;-68
2023/04/16 10:26:59;;;;;;;;;;;;;;;16.79;43.52;94018.94;4193750;28;19964;-64
2023/04/16 10:29:00;;;;;;;;;;;;;;;16.82;42.34;94011.63;4192440;28;19960;-66
2023/04/16 10:31:03;;;;;;;;;;;;;;;17.09;42.29;94018.34;4189080;28;19990;-59
2023/04/16 10:33:04;;;;;;;;;;;;;;;17.38;43.46;94008.97;4187022;28;19925;-64
2023/04/16 10:35:06;;;;;;;;;;;;;;;17.72;41.88;93998.81;4193428;28;19932;-63
2023/04/16 10:37:07;;;;;;;;;;;;;;;17.99;42.77;93994.09;4193434;28;20012;-67